HETR

El Tor Airport

Egypt
METAR HETR 181400Z 30018KT CAVOK 32/23 Q1003
Observed Flight Rules
Aug-18 @ 14:00 UTC (51 minutes ago) Visual Flight Rules
Wind Visibility Clouds
300° at 18 knots 10,000+ meters
  • Clear skies
Temperatures Readings
Current 32°C / 90°F
Dewpoint 23°C / 73°F
Humidity 59%
Altimeter 29.62" Hg
Pressure 1003 hPa
Elevation 35
METAR HETR 181400Z 30018KT CAVOK 32/23 Q1003
Observed Flight Rules
Aug-18 @ 14:00 UTC
(51 minutes ago)
VFR
Wind Visibility
300° at 18 knots 10,000+ meters
Clouds
  • Clear skies
Temperature Dewpoint
32°C / 90°F 23°C / 73°F
Humidity Altimeter Pressure
59% 29.62" Hg 1003 hPa